sensor_id;sensor_type;location;lat;lon;timestamp;P1;durP1;ratioP1;P2;durP2;ratioP2
18459;SDS011;9359;50.932;6.924;2024-01-16T02:25:54;120.30;;;46.23;;
18459;SDS011;9359;50.932;6.924;2024-01-16T02:28:25;101.00;;;39.57;;
18459;SDS011;9359;50.932;6.924;2024-01-16T02:30:55;108.70;;;43.87;;
18459;SDS011;9359;50.932;6.924;2024-01-16T02:33:26;113.73;;;43.50;;
18459;SDS011;9359;50.932;6.924;2024-01-16T02:35:57;119.03;;;47.90;;
18459;SDS011;9359;50.932;6.924;2024-01-16T02:38:27;114.83;;;44.53;;
18459;SDS011;9359;50.932;6.924;2024-01-16T02:41:00;124.67;;;47.33;;
18459;SDS011;9359;50.932;6.924;2024-01-16T02:43:30;149.23;;;54.97;;
18459;SDS011;9359;50.932;6.924;2024-01-16T02:46:01;144.43;;;55.67;;
18459;SDS011;9359;50.932;6.924;2024-01-16T02:48:31;138.37;;;54.57;;
18459;SDS011;9359;50.932;6.924;2024-01-16T02:51:01;133.63;;;53.23;;
18459;SDS011;9359;50.932;6.924;2024-01-16T02:53:32;148.97;;;52.87;;
18459;SDS011;9359;50.932;6.924;2024-01-16T02:56:05;150.10;;;56.80;;
18459;SDS011;9359;50.932;6.924;2024-01-16T02:58:37;140.03;;;55.07;;
18459;SDS011;9359;50.932;6.924;2024-01-16T03:01:07;143.63;;;55.33;;
18459;SDS011;9359;50.932;6.924;2024-01-16T03:03:38;156.27;;;58.30;;
18459;SDS011;9359;50.932;6.924;2024-01-16T03:06:09;161.37;;;60.03;;
18459;SDS011;9359;50.932;6.924;2024-01-16T03:08:50;158.13;;;57.80;;
18459;SDS011;9359;50.932;6.924;2024-01-16T03:11:22;155.87;;;56.43;;
18459;SDS011;9359;50.932;6.924;2024-01-16T03:13:53;177.13;;;64.57;;
18459;SDS011;9359;50.932;6.924;2024-01-16T03:16:24;165.83;;;62.87;;
18459;SDS011;9359;50.932;6.924;2024-01-16T03:18:54;182.60;;;60.33;;
18459;SDS011;9359;50.932;6.924;2024-01-16T03:21:25;166.93;;;64.50;;
18459;SDS011;9359;50.932;6.924;2024-01-16T03:23:55;156.03;;;58.33;;
18459;SDS011;9359;50.932;6.924;2024-01-16T03:26:28;145.87;;;55.97;;
18459;SDS011;9359;50.932;6.924;2024-01-16T03:28:58;175.37;;;60.27;;
18459;SDS011;9359;50.932;6.924;2024-01-16T03:31:29;186.40;;;62.13;;
18459;SDS011;9359;50.932;6.924;2024-01-16T03:33:59;150.20;;;51.77;;
18459;SDS011;9359;50.932;6.924;2024-01-16T03:36:29;171.80;;;58.50;;
18459;SDS011;9359;50.932;6.924;2024-01-16T03:39:00;168.13;;;60.03;;
18459;SDS011;9359;50.932;6.924;2024-01-16T03:41:33;173.07;;;62.97;;
18459;SDS011;9359;50.932;6.924;2024-01-16T03:44:04;170.20;;;58.47;;
18459;SDS011;9359;50.932;6.924;2024-01-16T03:46:34;168.63;;;59.40;;
18459;SDS011;9359;50.932;6.924;2024-01-16T03:49:04;169.87;;;58.63;;
18459;SDS011;9359;50.932;6.924;2024-01-16T03:51:35;150.43;;;56.20;;
18459;SDS011;9359;50.932;6.924;2024-01-16T03:54:08;145.10;;;53.63;;
18459;SDS011;9359;50.932;6.924;2024-01-16T03:56:41;163.33;;;58.17;;
18459;SDS011;9359;50.932;6.924;2024-01-16T03:59:11;156.20;;;58.60;;
18459;SDS011;9359;50.932;6.924;2024-01-16T04:01:42;143.27;;;54.10;;
18459;SDS011;9359;50.932;6.924;2024-01-16T04:04:14;151.83;;;57.97;;
18459;SDS011;9359;50.932;6.924;2024-01-16T04:06:45;161.70;;;55.73;;
18459;SDS011;9359;50.932;6.924;2024-01-16T04:09:16;165.00;;;58.00;;
18459;SDS011;9359;50.932;6.924;2024-01-16T04:11:49;166.23;;;60.60;;
18459;SDS011;9359;50.932;6.924;2024-01-16T04:14:19;151.40;;;54.23;;
18459;SDS011;9359;50.932;6.924;2024-01-16T04:16:50;154.87;;;56.30;;
18459;SDS011;9359;50.932;6.924;2024-01-16T04:19:20;162.67;;;59.13;;
18459;SDS011;9359;50.932;6.924;2024-01-16T04:21:51;161.80;;;57.43;;
18459;SDS011;9359;50.932;6.924;2024-01-16T04:24:21;157.97;;;57.03;;
18459;SDS011;9359;50.932;6.924;2024-01-16T04:26:55;172.77;;;57.50;;
18459;SDS011;9359;50.932;6.924;2024-01-16T04:29:25;158.23;;;56.90;;
18459;SDS011;9359;50.932;6.924;2024-01-16T04:31:56;149.27;;;55.93;;
18459;SDS011;9359;50.932;6.924;2024-01-16T04:34:27;158.73;;;57.03;;
18459;SDS011;9359;50.932;6.924;2024-01-16T04:36:57;153.13;;;56.63;;
18459;SDS011;9359;50.932;6.924;2024-01-16T04:39:28;162.33;;;58.33;;
18459;SDS011;9359;50.932;6.924;2024-01-16T04:42:00;180.60;;;64.50;;
18459;SDS011;9359;50.932;6.924;2024-01-16T04:44:31;172.97;;;62.23;;
18459;SDS011;9359;50.932;6.924;2024-01-16T04:47:01;151.50;;;57.87;;
18459;SDS011;9359;50.932;6.924;2024-01-16T04:49:32;175.70;;;61.37;;
18459;SDS011;9359;50.932;6.924;2024-01-16T04:52:03;191.73;;;59.00;;
18459;SDS011;9359;50.932;6.924;2024-01-16T04:54:34;157.57;;;56.33;;
18459;SDS011;9359;50.932;6.924;2024-01-16T04:57:06;201.03;;;63.97;;
18459;SDS011;9359;50.932;6.924;2024-01-16T04:59:36;172.13;;;59.40;;
18459;SDS011;9359;50.932;6.924;2024-01-16T05:02:07;161.83;;;58.63;;
18459;SDS011;9359;50.932;6.924;2024-01-16T05:04:38;157.33;;;57.60;;
18459;SDS011;9359;50.932;6.924;2024-01-16T05:07:08;159.47;;;55.13;;
18459;SDS011;9359;50.932;6.924;2024-01-16T05:09:39;135.53;;;47.00;;
18459;SDS011;9359;50.932;6.924;2024-01-16T05:12:11;159.30;;;56.73;;
18459;SDS011;9359;50.932;6.924;2024-01-16T05:14:42;131.87;;;50.83;;
18459;SDS011;9359;50.932;6.924;2024-01-16T05:17:12;251.27;;;90.20;;
18459;SDS011;9359;50.932;6.924;2024-01-16T05:19:43;439.13;;;155.33;;
18459;SDS011;9359;50.932;6.924;2024-01-16T05:22:13;499.17;;;179.00;;
18459;SDS011;9359;50.932;6.924;2024-01-16T05:24:43;506.37;;;186.70;;
18459;SDS011;9359;50.932;6.924;2024-01-16T05:27:16;512.57;;;205.63;;
18459;SDS011;9359;50.932;6.924;2024-01-16T05:29:46;517.43;;;206.67;;
18459;SDS011;9359;50.932;6.924;2024-01-16T05:32:17;531.40;;;205.23;;
18459;SDS011;9359;50.932;6.924;2024-01-16T05:34:47;527.90;;;210.77;;
18459;SDS011;9359;50.932;6.924;2024-01-16T05:37:18;547.25;;;224.55;;
18459;SDS011;9359;50.932;6.924;2024-01-16T05:39:49;533.30;;;209.03;;
18459;SDS011;9359;50.932;6.924;2024-01-16T05:42:22;523.53;;;202.73;;
18459;SDS011;9359;50.932;6.924;2024-01-16T05:44:53;496.83;;;192.50;;
18459;SDS011;9359;50.932;6.924;2024-01-16T05:47:24;503.30;;;192.77;;
18459;SDS011;9359;50.932;6.924;2024-01-16T05:49:56;509.20;;;188.73;;
18459;SDS011;9359;50.932;6.924;2024-01-16T05:52:27;464.73;;;170.70;;
18459;SDS011;9359;50.932;6.924;2024-01-16T05:55:01;429.37;;;159.23;;
18459;SDS011;9359;50.932;6.924;2024-01-16T05:57:34;420.00;;;141.53;;
18459;SDS011;9359;50.932;6.924;2024-01-16T06:00:04;344.23;;;126.63;;
18459;SDS011;9359;50.932;6.924;2024-01-16T06:02:36;304.30;;;113.40;;
18459;SDS011;9359;50.932;6.924;2024-01-16T06:05:07;323.57;;;109.17;;
18459;SDS011;9359;50.932;6.924;2024-01-16T06:07:37;235.77;;;90.07;;
18459;SDS011;9359;50.932;6.924;2024-01-16T06:10:08;291.87;;;94.33;;
18459;SDS011;9359;50.932;6.924;2024-01-16T06:12:43;221.83;;;78.13;;
18459;SDS011;9359;50.932;6.924;2024-01-16T06:15:13;208.73;;;75.60;;
18459;SDS011;9359;50.932;6.924;2024-01-16T06:17:44;149.25;;;59.00;;
18459;SDS011;9359;50.932;6.924;2024-01-16T06:20:14;143.53;;;55.20;;
18459;SDS011;9359;50.932;6.924;2024-01-16T06:22:45;141.23;;;52.07;;
18459;SDS011;9359;50.932;6.924;2024-01-16T06:25:15;127.53;;;49.67;;
18459;SDS011;9359;50.932;6.924;2024-01-16T06:27:47;131.70;;;46.07;;
18459;SDS011;9359;50.932;6.924;2024-01-16T06:30:18;126.87;;;47.43;;
18459;SDS011;9359;50.932;6.924;2024-01-16T06:32:49;114.93;;;41.87;;
18459;SDS011;9359;50.932;6.924;2024-01-16T06:35:20;114.37;;;41.07;;
18459;SDS011;9359;50.932;6.924;2024-01-16T06:37:51;103.00;;;38.97;;
18459;SDS011;9359;50.932;6.924;2024-01-16T06:40:22;99.10;;;37.77;;
18459;SDS011;9359;50.932;6.924;2024-01-16T06:42:54;97.43;;;37.10;;
18459;SDS011;9359;50.932;6.924;2024-01-16T06:45:25;89.83;;;36.43;;
18459;SDS011;9359;50.932;6.924;2024-01-16T06:47:55;87.67;;;34.77;;
18459;SDS011;9359;50.932;6.924;2024-01-16T06:50:26;74.03;;;28.30;;
18459;SDS011;9359;50.932;6.924;2024-01-16T06:52:56;74.03;;;27.77;;
18459;SDS011;9359;50.932;6.924;2024-01-16T06:55:27;73.87;;;30.27;;
18459;SDS011;9359;50.932;6.924;2024-01-16T06:57:59;73.37;;;28.37;;
18459;SDS011;9359;50.932;6.924;2024-01-16T07:00:29;77.33;;;29.83;;
18459;SDS011;9359;50.932;6.924;2024-01-16T07:03:00;87.37;;;31.67;;
18459;SDS011;9359;50.932;6.924;2024-01-16T07:05:31;78.77;;;32.00;;
18459;SDS011;9359;50.932;6.924;2024-01-16T07:08:01;86.07;;;32.03;;
18459;SDS011;9359;50.932;6.924;2024-01-16T07:10:32;94.63;;;33.93;;
18459;SDS011;9359;50.932;6.924;2024-01-16T07:13:04;80.20;;;30.87;;
18459;SDS011;9359;50.932;6.924;2024-01-16T07:15:35;92.50;;;31.67;;
18459;SDS011;9359;50.932;6.924;2024-01-16T07:18:06;80.83;;;30.80;;
18459;SDS011;9359;50.932;6.924;2024-01-16T07:20:37;81.80;;;32.47;;
18459;SDS011;9359;50.932;6.924;2024-01-16T07:23:07;83.43;;;31.73;;
18459;SDS011;9359;50.932;6.924;2024-01-16T07:25:38;81.23;;;30.90;;
18459;SDS011;9359;50.932;6.924;2024-01-16T07:28:10;68.33;;;30.63;;
18459;SDS011;9359;50.932;6.924;2024-01-16T07:30:41;79.57;;;30.87;;
18459;SDS011;9359;50.932;6.924;2024-01-16T07:33:11;76.40;;;29.40;;
18459;SDS011;9359;50.932;6.924;2024-01-16T07:35:42;82.27;;;30.60;;
18459;SDS011;9359;50.932;6.924;2024-01-16T07:38:13;72.07;;;30.43;;
18459;SDS011;9359;50.932;6.924;2024-01-16T07:40:45;90.83;;;33.27;;
18459;SDS011;9359;50.932;6.924;2024-01-16T07:43:17;81.57;;;36.03;;
18459;SDS011;9359;50.932;6.924;2024-01-16T07:45:48;79.20;;;33.00;;
18459;SDS011;9359;50.932;6.924;2024-01-16T07:48:18;86.80;;;35.70;;
18459;SDS011;9359;50.932;6.924;2024-01-16T07:50:49;88.93;;;36.40;;
18459;SDS011;9359;50.932;6.924;2024-01-16T07:53:19;92.10;;;37.30;;
18459;SDS011;9359;50.932;6.924;2024-01-16T07:55:53;95.07;;;37.70;;
18459;SDS011;9359;50.932;6.924;2024-01-16T07:58:26;94.50;;;36.87;;
18459;SDS011;9359;50.932;6.924;2024-01-16T08:00:57;93.77;;;38.37;;
18459;SDS011;9359;50.932;6.924;2024-01-16T08:03:27;112.97;;;39.23;;
18459;SDS011;9359;50.932;6.924;2024-01-16T08:05:58;96.60;;;39.90;;
18459;SDS011;9359;50.932;6.924;2024-01-16T08:08:29;92.37;;;37.10;;
18459;SDS011;9359;50.932;6.924;2024-01-16T08:11:00;110.87;;;40.33;;
18459;SDS011;9359;50.932;6.924;2024-01-16T08:13:32;101.97;;;40.93;;
18459;SDS011;9359;50.932;6.924;2024-01-16T08:16:02;106.73;;;41.37;;
18459;SDS011;9359;50.932;6.924;2024-01-16T08:18:33;109.33;;;42.43;;
18459;SDS011;9359;50.932;6.924;2024-01-16T08:21:04;110.63;;;43.73;;
18459;SDS011;9359;50.932;6.924;2024-01-16T08:23:34;104.30;;;42.37;;
18459;SDS011;9359;50.932;6.924;2024-01-16T08:26:05;115.30;;;45.93;;
18459;SDS011;9359;50.932;6.924;2024-01-16T08:28:37;96.30;;;39.60;;
18459;SDS011;9359;50.932;6.924;2024-01-16T08:31:08;103.83;;;41.43;;
18459;SDS011;9359;50.932;6.924;2024-01-16T08:33:38;104.33;;;41.40;;
18459;SDS011;9359;50.932;6.924;2024-01-16T08:36:09;100.67;;;39.63;;
18459;SDS011;9359;50.932;6.924;2024-01-16T08:38:39;116.27;;;44.80;;
18459;SDS011;9359;50.932;6.924;2024-01-16T08:41:10;127.83;;;47.83;;
18459;SDS011;9359;50.932;6.924;2024-01-16T08:43:42;116.70;;;48.40;;
18459;SDS011;9359;50.932;6.924;2024-01-16T08:46:13;143.00;;;51.37;;
18459;SDS011;9359;50.932;6.924;2024-01-16T08:48:45;141.80;;;53.63;;
18459;SDS011;9359;50.932;6.924;2024-01-16T08:51:16;139.23;;;56.10;;
18459;SDS011;9359;50.932;6.924;2024-01-16T08:53:46;161.73;;;62.40;;
18459;SDS011;9359;50.932;6.924;2024-01-16T08:56:17;181.70;;;69.57;;
18459;SDS011;9359;50.932;6.924;2024-01-16T08:58:49;163.00;;;64.13;;
18459;SDS011;9359;50.932;6.924;2024-01-16T09:01:20;157.30;;;63.23;;
18459;SDS011;9359;50.932;6.924;2024-01-16T09:03:50;187.10;;;68.63;;
18459;SDS011;9359;50.932;6.924;2024-01-16T09:06:21;204.23;;;77.80;;
18459;SDS011;9359;50.932;6.924;2024-01-16T09:08:52;213.70;;;80.10;;
18459;SDS011;9359;50.932;6.924;2024-01-16T09:11:22;211.57;;;81.13;;
18459;SDS011;9359;50.932;6.924;2024-01-16T09:13:54;221.20;;;85.50;;
18459;SDS011;9359;50.932;6.924;2024-01-16T09:16:25;229.03;;;88.20;;
18459;SDS011;9359;50.932;6.924;2024-01-16T09:18:56;245.20;;;89.50;;
18459;SDS011;9359;50.932;6.924;2024-01-16T09:21:27;271.63;;;95.77;;
18459;SDS011;9359;50.932;6.924;2024-01-16T09:23:58;242.37;;;93.77;;
18459;SDS011;9359;50.932;6.924;2024-01-16T09:26:29;224.37;;;89.10;;
18459;SDS011;9359;50.932;6.924;2024-01-16T09:29:01;236.20;;;83.37;;
18459;SDS011;9359;50.932;6.924;2024-01-16T09:31:32;230.63;;;82.47;;
18459;SDS011;9359;50.932;6.924;2024-01-16T09:34:03;201.60;;;74.87;;
18459;SDS011;9359;50.932;6.924;2024-01-16T09:36:34;199.93;;;73.37;;
18459;SDS011;9359;50.932;6.924;2024-01-16T09:39:04;182.50;;;65.87;;
18459;SDS011;9359;50.932;6.924;2024-01-16T09:41:37;186.47;;;64.10;;
18459;SDS011;9359;50.932;6.924;2024-01-16T09:44:10;170.57;;;62.87;;
18459;SDS011;9359;50.932;6.924;2024-01-16T09:46:41;178.47;;;62.27;;
18459;SDS011;9359;50.932;6.924;2024-01-16T09:49:15;176.73;;;61.77;;
18459;SDS011;9359;50.932;6.924;2024-01-16T09:51:47;164.97;;;56.87;;
18459;SDS011;9359;50.932;6.924;2024-01-16T09:54:17;145.87;;;54.77;;
18459;SDS011;9359;50.932;6.924;2024-01-16T09:56:48;158.93;;;56.87;;
18459;SDS011;9359;50.932;6.924;2024-01-16T09:59:24;158.17;;;55.50;;
18459;SDS011;9359;50.932;6.924;2024-01-16T10:01:57;140.20;;;53.00;;
18459;SDS011;9359;50.932;6.924;2024-01-16T10:04:31;140.00;;;52.23;;
18459;SDS011;9359;50.932;6.924;2024-01-16T10:07:02;139.63;;;49.20;;
18459;SDS011;9359;50.932;6.924;2024-01-16T10:09:34;132.33;;;49.43;;
18459;SDS011;9359;50.932;6.924;2024-01-16T10:12:07;153.63;;;53.07;;
18459;SDS011;9359;50.932;6.924;2024-01-16T10:14:40;141.03;;;50.97;;
18459;SDS011;9359;50.932;6.924;2024-01-16T10:17:13;136.70;;;50.03;;
18459;SDS011;9359;50.932;6.924;2024-01-16T10:19:47;132.10;;;46.90;;
18459;SDS011;9359;50.932;6.924;2024-01-16T10:22:21;129.77;;;46.13;;
18459;SDS011;9359;50.932;6.924;2024-01-16T10:25:04;129.53;;;46.67;;
18459;SDS011;9359;50.932;6.924;2024-01-16T10:27:35;143.60;;;49.00;;
18459;SDS011;9359;50.932;6.924;2024-01-16T10:30:09;126.03;;;45.50;;
18459;SDS011;9359;50.932;6.924;2024-01-16T10:32:40;146.47;;;48.00;;
18459;SDS011;9359;50.932;6.924;2024-01-16T10:35:11;176.90;;;50.47;;
18459;SDS011;9359;50.932;6.924;2024-01-16T10:37:46;161.27;;;52.83;;
18459;SDS011;9359;50.932;6.924;2024-01-16T10:40:17;186.67;;;53.77;;
18459;SDS011;9359;50.932;6.924;2024-01-16T10:42:56;159.03;;;51.17;;
18459;SDS011;9359;50.932;6.924;2024-01-16T10:45:30;143.90;;;50.33;;
18459;SDS011;9359;50.932;6.924;2024-01-16T10:48:02;174.00;;;54.13;;
18459;SDS011;9359;50.932;6.924;2024-01-16T10:50:34;160.10;;;51.53;;
18459;SDS011;9359;50.932;6.924;2024-01-16T10:53:06;155.27;;;52.57;;
18459;SDS011;9359;50.932;6.924;2024-01-16T10:55:38;164.27;;;53.00;;
18459;SDS011;9359;50.932;6.924;2024-01-16T10:58:15;157.87;;;50.00;;
18459;SDS011;9359;50.932;6.924;2024-01-16T11:00:52;175.33;;;51.23;;
18459;SDS011;9359;50.932;6.924;2024-01-16T11:03:24;161.37;;;50.90;;
18459;SDS011;9359;50.932;6.924;2024-01-16T11:05:58;153.50;;;49.50;;
18459;SDS011;9359;50.932;6.924;2024-01-16T11:08:30;130.23;;;44.20;;
18459;SDS011;9359;50.932;6.924;2024-01-16T11:11:02;140.23;;;44.17;;
18459;SDS011;9359;50.932;6.924;2024-01-16T11:13:34;125.83;;;42.60;;
18459;SDS011;9359;50.932;6.924;2024-01-16T11:16:07;123.93;;;43.17;;
18459;SDS011;9359;50.932;6.924;2024-01-16T11:18:39;120.57;;;43.27;;
18459;SDS011;9359;50.932;6.924;2024-01-16T11:21:13;110.63;;;40.77;;
18459;SDS011;9359;50.932;6.924;2024-01-16T11:23:44;115.53;;;40.87;;
18459;SDS011;9359;50.932;6.924;2024-01-16T11:26:27;99.53;;;38.40;;
18459;SDS011;9359;50.932;6.924;2024-01-16T11:29:00;95.93;;;37.97;;
18459;SDS011;9359;50.932;6.924;2024-01-16T11:31:52;113.57;;;36.60;;
18459;SDS011;9359;50.932;6.924;2024-01-16T11:37:39;91.07;;;34.27;;
18459;SDS011;9359;50.932;6.924;2024-01-16T11:40:21;104.47;;;37.30;;
18459;SDS011;9359;50.932;6.924;2024-01-16T11:42:52;105.27;;;38.60;;
18459;SDS011;9359;50.932;6.924;2024-01-16T11:48:23;89.53;;;35.23;;
18459;SDS011;9359;50.932;6.924;2024-01-16T11:50:53;84.77;;;31.60;;
18459;SDS011;9359;50.932;6.924;2024-01-16T12:02:41;62.80;;;26.37;;
18459;SDS011;9359;50.932;6.924;2024-01-16T12:05:27;70.57;;;27.10;;
18459;SDS011;9359;50.932;6.924;2024-01-16T12:07:59;78.93;;;27.80;;
18459;SDS011;9359;50.932;6.924;2024-01-16T12:10:30;70.67;;;27.77;;
18459;SDS011;9359;50.932;6.924;2024-01-16T12:13:00;77.00;;;29.50;;
18459;SDS011;9359;50.932;6.924;2024-01-16T12:15:31;72.27;;;28.33;;
18459;SDS011;9359;50.932;6.924;2024-01-16T12:18:02;66.23;;;26.63;;
18459;SDS011;9359;50.932;6.924;2024-01-16T12:20:36;75.83;;;28.20;;
18459;SDS011;9359;50.932;6.924;2024-01-16T12:23:07;82.57;;;29.13;;
18459;SDS011;9359;50.932;6.924;2024-01-16T12:25:37;76.97;;;29.93;;
18459;SDS011;9359;50.932;6.924;2024-01-16T12:28:08;74.23;;;29.40;;
18459;SDS011;9359;50.932;6.924;2024-01-16T12:30:41;77.80;;;29.13;;
18459;SDS011;9359;50.932;6.924;2024-01-16T12:33:21;75.77;;;29.13;;
18459;SDS011;9359;50.932;6.924;2024-01-16T12:35:59;77.90;;;30.17;;
18459;SDS011;9359;50.932;6.924;2024-01-16T12:38:31;79.40;;;27.97;;
18459;SDS011;9359;50.932;6.924;2024-01-16T12:41:01;81.17;;;29.60;;
18459;SDS011;9359;50.932;6.924;2024-01-16T12:43:36;73.87;;;28.60;;
18459;SDS011;9359;50.932;6.924;2024-01-16T12:46:07;74.23;;;28.50;;
18459;SDS011;9359;50.932;6.924;2024-01-16T12:48:41;85.57;;;29.90;;
18459;SDS011;9359;50.932;6.924;2024-01-16T12:51:19;64.30;;;26.57;;
18459;SDS011;9359;50.932;6.924;2024-01-16T12:53:50;71.30;;;28.67;;
18459;SDS011;9359;50.932;6.924;2024-01-16T12:56:20;75.30;;;28.63;;
18459;SDS011;9359;50.932;6.924;2024-01-16T12:58:51;82.63;;;30.90;;
18459;SDS011;9359;50.932;6.924;2024-01-16T13:01:22;67.07;;;26.90;;
18459;SDS011;9359;50.932;6.924;2024-01-16T13:03:54;70.37;;;27.83;;
18459;SDS011;9359;50.932;6.924;2024-01-16T13:09:20;70.00;;;27.17;;
18459;SDS011;9359;50.932;6.924;2024-01-16T13:11:53;75.70;;;31.03;;
18459;SDS011;9359;50.932;6.924;2024-01-16T13:14:24;78.47;;;30.10;;
18459;SDS011;9359;50.932;6.924;2024-01-16T13:16:56;70.33;;;28.27;;
18459;SDS011;9359;50.932;6.924;2024-01-16T13:19:29;79.07;;;30.98;;
18459;SDS011;9359;50.932;6.924;2024-01-16T13:22:01;80.20;;;30.13;;
18459;SDS011;9359;50.932;6.924;2024-01-16T13:24:33;82.93;;;29.50;;
18459;SDS011;9359;50.932;6.924;2024-01-16T13:27:03;78.87;;;28.47;;
18459;SDS011;9359;50.932;6.924;2024-01-16T13:29:35;76.60;;;29.23;;
18459;SDS011;9359;50.932;6.924;2024-01-16T13:32:06;88.37;;;30.47;;
18459;SDS011;9359;50.932;6.924;2024-01-16T13:34:36;86.00;;;30.27;;
18459;SDS011;9359;50.932;6.924;2024-01-16T13:37:14;74.33;;;29.63;;
18459;SDS011;9359;50.932;6.924;2024-01-16T13:39:49;92.03;;;32.23;;
18459;SDS011;9359;50.932;6.924;2024-01-16T13:42:19;90.47;;;31.97;;
18459;SDS011;9359;50.932;6.924;2024-01-16T13:44:50;85.67;;;29.87;;
18459;SDS011;9359;50.932;6.924;2024-01-16T13:47:20;92.47;;;33.63;;
18459;SDS011;9359;50.932;6.924;2024-01-16T13:49:51;90.13;;;34.03;;
18459;SDS011;9359;50.932;6.924;2024-01-16T13:52:24;88.70;;;34.03;;
18459;SDS011;9359;50.932;6.924;2024-01-16T13:54:54;98.37;;;35.77;;
18459;SDS011;9359;50.932;6.924;2024-01-16T13:57:25;109.87;;;37.87;;
18459;SDS011;9359;50.932;6.924;2024-01-16T13:59:56;93.73;;;36.57;;
18459;SDS011;9359;50.932;6.924;2024-01-16T14:02:26;112.30;;;37.90;;
18459;SDS011;9359;50.932;6.924;2024-01-16T14:04:57;101.47;;;35.30;;
18459;SDS011;9359;50.932;6.924;2024-01-16T14:07:29;103.03;;;36.80;;
18459;SDS011;9359;50.932;6.924;2024-01-16T14:09:59;106.27;;;37.30;;
18459;SDS011;9359;50.932;6.924;2024-01-16T14:12:29;107.33;;;37.30;;
18459;SDS011;9359;50.932;6.924;2024-01-16T14:15:01;105.53;;;36.23;;
18459;SDS011;9359;50.932;6.924;2024-01-16T14:17:37;101.60;;;37.27;;
18459;SDS011;9359;50.932;6.924;2024-01-16T14:20:08;96.30;;;35.77;;
18459;SDS011;9359;50.932;6.924;2024-01-16T14:22:41;99.00;;;35.07;;
18459;SDS011;9359;50.932;6.924;2024-01-16T14:25:12;98.17;;;34.70;;
18459;SDS011;9359;50.932;6.924;2024-01-16T14:27:45;94.23;;;37.10;;
18459;SDS011;9359;50.932;6.924;2024-01-16T14:30:18;96.73;;;35.83;;
18459;SDS011;9359;50.932;6.924;2024-01-16T14:32:48;99.47;;;38.00;;
18459;SDS011;9359;50.932;6.924;2024-01-16T14:35:19;109.10;;;38.50;;
18459;SDS011;9359;50.932;6.924;2024-01-16T14:37:52;105.83;;;37.60;;
18459;SDS011;9359;50.932;6.924;2024-01-16T14:40:22;103.40;;;37.27;;
18459;SDS011;9359;50.932;6.924;2024-01-16T14:42:53;126.20;;;42.10;;
18459;SDS011;9359;50.932;6.924;2024-01-16T14:45:25;134.70;;;48.47;;
18459;SDS011;9359;50.932;6.924;2024-01-16T14:47:57;146.00;;;50.63;;
18459;SDS011;9359;50.932;6.924;2024-01-16T14:50:29;156.13;;;54.83;;
18459;SDS011;9359;50.932;6.924;2024-01-16T14:53:02;166.50;;;56.80;;
18459;SDS011;9359;50.932;6.924;2024-01-16T14:55:32;171.40;;;58.93;;
18459;SDS011;9359;50.932;6.924;2024-01-16T14:58:03;187.67;;;59.80;;
18459;SDS011;9359;50.932;6.924;2024-01-16T15:00:36;166.23;;;59.27;;
18459;SDS011;9359;50.932;6.924;2024-01-16T15:03:06;166.33;;;58.37;;
18459;SDS011;9359;50.932;6.924;2024-01-16T15:05:37;167.13;;;55.57;;
18459;SDS011;9359;50.932;6.924;2024-01-16T15:08:09;158.30;;;51.77;;
18459;SDS011;9359;50.932;6.924;2024-01-16T15:10:40;161.07;;;52.33;;
18459;SDS011;9359;50.932;6.924;2024-01-16T15:13:11;156.27;;;51.80;;
18459;SDS011;9359;50.932;6.924;2024-01-16T15:15:41;148.00;;;49.90;;
18459;SDS011;9359;50.932;6.924;2024-01-16T15:18:12;140.73;;;48.10;;
18459;SDS011;9359;50.932;6.924;2024-01-16T15:20:43;152.50;;;48.37;;
18459;SDS011;9359;50.932;6.924;2024-01-16T15:23:15;128.83;;;46.03;;
18459;SDS011;9359;50.932;6.924;2024-01-16T15:25:47;141.70;;;46.40;;
18459;SDS011;9359;50.932;6.924;2024-01-16T15:28:17;144.80;;;47.53;;
18459;SDS011;9359;50.932;6.924;2024-01-16T15:30:48;135.17;;;46.13;;
18459;SDS011;9359;50.932;6.924;2024-01-16T15:33:19;136.27;;;46.60;;
18459;SDS011;9359;50.932;6.924;2024-01-16T15:35:50;143.90;;;45.73;;
18459;SDS011;9359;50.932;6.924;2024-01-16T15:38:22;133.47;;;43.83;;
18459;SDS011;9359;50.932;6.924;2024-01-16T15:40:52;125.90;;;44.33;;
18459;SDS011;9359;50.932;6.924;2024-01-16T15:43:23;131.63;;;42.73;;
18459;SDS011;9359;50.932;6.924;2024-01-16T15:45:54;125.63;;;42.40;;
18459;SDS011;9359;50.932;6.924;2024-01-16T15:48:25;125.53;;;42.17;;
18459;SDS011;9359;50.932;6.924;2024-01-16T15:51:00;125.03;;;42.07;;
18459;SDS011;9359;50.932;6.924;2024-01-16T15:53:34;119.70;;;41.63;;
18459;SDS011;9359;50.932;6.924;2024-01-16T15:56:05;135.80;;;42.77;;
18459;SDS011;9359;50.932;6.924;2024-01-16T15:58:36;112.93;;;39.57;;
18459;SDS011;9359;50.932;6.924;2024-01-16T16:01:07;103.07;;;37.07;;
18459;SDS011;9359;50.932;6.924;2024-01-16T16:03:38;119.97;;;41.10;;
18459;SDS011;9359;50.932;6.924;2024-01-16T16:06:09;120.13;;;40.80;;
18459;SDS011;9359;50.932;6.924;2024-01-16T16:08:41;131.23;;;42.00;;
18459;SDS011;9359;50.932;6.924;2024-01-16T16:11:12;129.80;;;41.80;;
18459;SDS011;9359;50.932;6.924;2024-01-16T16:13:42;129.23;;;43.60;;
18459;SDS011;9359;50.932;6.924;2024-01-16T16:16:13;121.93;;;41.47;;
18459;SDS011;9359;50.932;6.924;2024-01-16T16:18:43;133.30;;;41.40;;
18459;SDS011;9359;50.932;6.924;2024-01-16T16:21:14;125.20;;;41.87;;
18459;SDS011;9359;50.932;6.924;2024-01-16T16:23:46;126.50;;;40.80;;
18459;SDS011;9359;50.932;6.924;2024-01-16T16:26:17;135.13;;;41.60;;
18459;SDS011;9359;50.932;6.924;2024-01-16T16:29:00;123.87;;;38.03;;
18459;SDS011;9359;50.932;6.924;2024-01-16T16:31:31;107.67;;;36.13;;
18459;SDS011;9359;50.932;6.924;2024-01-16T16:34:02;113.27;;;38.30;;
18459;SDS011;9359;50.932;6.924;2024-01-16T16:36:34;114.93;;;38.30;;
18459;SDS011;9359;50.932;6.924;2024-01-16T16:39:08;119.80;;;38.43;;
18459;SDS011;9359;50.932;6.924;2024-01-16T16:41:39;106.93;;;37.77;;
18459;SDS011;9359;50.932;6.924;2024-01-16T16:44:10;114.77;;;38.67;;
18459;SDS011;9359;50.932;6.924;2024-01-16T16:46:41;121.97;;;39.47;;
18459;SDS011;9359;50.932;6.924;2024-01-16T16:49:12;127.63;;;41.80;;
18459;SDS011;9359;50.932;6.924;2024-01-16T16:51:43;131.27;;;44.53;;
18459;SDS011;9359;50.932;6.924;2024-01-16T16:54:15;132.00;;;42.77;;
18459;SDS011;9359;50.932;6.924;2024-01-16T16:56:46;152.97;;;49.27;;
18459;SDS011;9359;50.932;6.924;2024-01-16T16:59:17;150.10;;;49.53;;
18459;SDS011;9359;50.932;6.924;2024-01-16T17:01:47;194.10;;;59.77;;
18459;SDS011;9359;50.932;6.924;2024-01-16T17:04:18;151.57;;;52.30;;
18459;SDS011;9359;50.932;6.924;2024-01-16T17:06:49;144.57;;;47.83;;
18459;SDS011;9359;50.932;6.924;2024-01-16T17:09:23;166.57;;;51.00;;
18459;SDS011;9359;50.932;6.924;2024-01-16T17:11:53;164.73;;;55.07;;
18459;SDS011;9359;50.932;6.924;2024-01-16T17:14:24;182.20;;;57.77;;
18459;SDS011;9359;50.932;6.924;2024-01-16T17:16:55;178.13;;;56.57;;
18459;SDS011;9359;50.932;6.924;2024-01-16T17:19:26;170.73;;;52.87;;
18459;SDS011;9359;50.932;6.924;2024-01-16T17:21:56;190.97;;;57.47;;
18459;SDS011;9359;50.932;6.924;2024-01-16T17:24:30;197.33;;;62.07;;
18459;SDS011;9359;50.932;6.924;2024-01-16T17:27:01;182.87;;;58.83;;
18459;SDS011;9359;50.932;6.924;2024-01-16T17:29:31;205.47;;;60.10;;
18459;SDS011;9359;50.932;6.924;2024-01-16T17:32:04;179.33;;;57.83;;